Time;durP1;ratioP1;P1;durP2;ratioP2;P2;SDS_P1;SDS_P2;PMS_P1;PMS_P2;Temp;Humidity;BMP_temperature;BMP_pressure;BME280_temperature;BME280_humidity;BME280_pressure;Samples;Min_cycle;Max_cycle;Signal;HPM_P1;HPM_P2
2023/02/21 02:23:32;;;;;;;1.60;1.40;;;;;;;7.24;85.15;97774.19;437097;1248;108129;-39
2023/02/21 02:34:13;;;;;;;2.20;1.90;;;;;;;7.18;86.07;97764.18;435668;1251;99240;-44
2023/02/21 02:44:25;;;;;;;2.40;2.10;;;;;;;7.15;86.78;97765.42;435784;1248;107877;-40
2023/02/21 02:54:33;;;;;;;2.90;2.10;;;;;;;7.15;87.90;97759.63;435873;1248;97910;-40
2023/02/21 03:04:49;;;;;;;2.70;1.70;;;;;;;7.14;89.03;97748.68;435669;1249;111139;-40
2023/02/21 03:14:58;;;;;;;5.60;2.90;;;;;;;7.14;89.73;97751.41;435654;1250;107501;-40
2023/02/21 03:25:06;;;;;;;4.60;2.90;;;;;;;7.17;89.98;97758.95;436919;1252;99126;-40
2023/02/21 03:35:14;;;;;;;3.90;3.00;;;;;;;7.22;90.08;97759.79;436885;1251;388184;-40
2023/02/21 03:45:22;;;;;;;3.60;2.50;;;;;;;7.26;90.16;97765.93;437026;1246;98490;-40
2023/02/21 03:55:29;;;;;;;5.80;3.80;;;;;;;7.29;90.53;97757.42;437218;1252;111355;-40
2023/02/21 04:05:36;;;;;;;3.40;3.10;;;;;;;7.28;91.06;97745.10;437151;1246;108167;-41
2023/02/21 04:15:43;;;;;;;3.50;2.60;;;;;;;7.30;90.74;97749.19;437280;1252;98003;-39
2023/02/21 04:25:50;;;;;;;4.40;2.40;;;;;;;7.31;90.98;97745.16;437185;1261;109702;-38
2023/02/21 04:46:02;;;;;;;3.10;2.20;;;;;;;7.31;91.08;97747.46;437232;1252;112218;-40
2023/02/21 05:16:24;;;;;;;2.00;1.70;;;;;;;7.33;91.41;97747.02;437340;1251;107963;-41
2023/02/21 05:26:36;;;;;;;3.70;1.70;;;;;;;7.32;91.77;97747.92;437280;1247;98829;-39
2023/02/21 05:36:43;;;;;;;3.00;1.90;;;;;;;7.35;91.84;97741.73;437296;1250;111717;-40
2023/02/21 05:46:50;;;;;;;3.20;1.90;;;;;;;7.40;92.28;97757.41;437180;1247;107258;-38
2023/02/21 05:56:57;;;;;;;2.40;1.90;;;;;;;7.44;92.25;97769.11;437091;1251;99218;-40
2023/02/21 06:07:04;;;;;;;1.80;1.60;;;;;;;7.53;91.99;97767.92;437906;1247;108308;-40
2023/02/21 06:17:12;;;;;;;2.50;2.30;;;;;;;7.59;91.82;97752.92;438082;1252;98812;-40
2023/02/21 06:27:19;;;;;;;2.40;1.80;;;;;;;7.61;91.85;97766.89;437229;1247;111042;-39
2023/02/21 06:37:27;;;;;;;8.20;5.30;;;;;;;7.56;92.06;97779.15;437301;1252;107416;-39
2023/02/21 06:47:35;;;;;;;9.30;6.20;;;;;;;7.57;91.89;97790.96;437099;1252;99231;-40
2023/02/21 06:57:42;;;;;;;16.60;9.60;;;;;;;7.58;92.08;97793.05;437194;1250;109665;-39
2023/02/21 07:07:49;;;;;;;7.60;4.50;;;;;;;7.66;92.45;97794.84;437195;1246;99194;-40
2023/02/21 07:17:57;;;;;;;6.10;3.80;;;;;;;7.71;92.63;97794.42;437213;1247;111046;-40
2023/02/21 07:38:10;;;;;;;8.10;4.20;;;;;;;7.77;92.55;97823.58;437335;1252;97996;-39
2023/02/21 07:48:17;;;;;;;24.00;14.30;;;;;;;7.82;92.50;97838.40;437204;1246;108627;-39
2023/02/21 07:58:24;;;;;;;20.50;11.20;;;;;;;7.82;92.93;97849.08;437049;1247;99277;-40
2023/02/21 08:08:31;;;;;;;6.10;5.20;;;;;;;7.98;92.98;97859.52;437093;1260;110282;-40
2023/02/21 08:18:38;;;;;;;4.60;3.90;;;;;;;8.07;93.14;97865.23;437169;1247;107942;-40
2023/02/21 08:28:44;;;;;;;3.20;2.30;;;;;;;7.96;93.27;97883.52;437988;1252;99192;-40
2023/02/21 08:38:52;;;;;;;10.70;5.80;;;;;;;7.77;93.36;97887.02;437199;1248;108600;-41
2023/02/21 08:49:00;;;;;;;8.80;6.20;;;;;;;7.79;93.25;97896.73;438245;1253;99229;-41
2023/02/21 08:59:08;;;;;;;15.50;8.50;;;;;;;7.82;93.42;97912.04;437097;1252;111962;-39
2023/02/21 09:09:15;;;;;;;4.80;2.20;;;;;;;7.71;93.47;97938.50;440253;1252;107336;-40
2023/02/21 09:19:21;;;;;;;4.40;2.20;;;;;;;7.62;93.72;97945.01;440625;1250;98320;-39
2023/02/21 09:29:29;;;;;;;4.60;2.30;;;;;;;7.62;94.11;97965.30;440222;1260;107103;-40
2023/02/21 09:39:51;;;;;;;4.40;3.10;;;;;;;7.63;94.86;97983.95;440833;1254;99206;-40
2023/02/21 09:49:58;;;;;;;6.00;4.20;;;;;;;8.02;95.32;97994.43;441007;1251;111853;-40
2023/02/21 10:10:24;;;;;;;5.30;3.40;;;;;;;8.59;94.86;97982.50;440319;1250;99185;-39
2023/02/21 10:20:29;;;;;;;5.00;3.60;;;;;;;8.76;94.39;97980.56;439377;1252;108535;-40
2023/02/21 10:40:46;;;;;;;7.80;3.70;;;;;;;9.71;92.98;97972.19;436906;1250;111083;-40
2023/02/21 10:51:10;;;;;;;6.00;4.70;;;;;;;10.20;92.04;97967.52;436798;1251;107091;-40
2023/02/21 11:01:21;;;;;;;7.90;5.30;;;;;;;10.87;90.57;97963.98;436977;1248;99119;-39
2023/02/21 11:21:44;;;;;;;4.40;2.50;;;;;;;10.44;81.95;97984.09;436997;1251;99189;-40
2023/02/21 11:31:52;;;;;;;3.40;1.90;;;;;;;10.13;82.80;97995.71;436798;1251;110807;-41
2023/02/21 11:52:14;;;;;;;3.40;2.00;;;;;;;10.79;80.11;97996.16;437037;1247;98120;-40
2023/02/21 12:02:41;;;;;;;2.30;1.60;;;;;;;10.43;78.66;97996.21;436830;1258;108101;-39
2023/02/21 12:12:53;;;;;;;2.10;1.90;;;;;;;9.96;78.87;97992.50;436840;1248;99184;-40
2023/02/21 12:23:01;;;;;;;2.80;2.20;;;;;;;10.01;80.16;97983.81;438164;1251;111094;-40
2023/02/21 12:33:10;;;;;;;8.10;6.40;;;;;;;10.60;79.89;97977.90;436831;1251;107341;-41
2023/02/21 12:43:35;;;;;;;2.90;2.50;;;;;;;10.86;78.57;97982.38;436747;1260;99238;-40
2023/02/21 12:53:40;;;;;;;6.30;3.40;;;;;;;10.34;76.31;97989.21;436677;1250;108542;-39
2023/02/21 13:13:58;;;;;;;6.10;2.90;;;;;;;9.71;74.38;97993.27;436624;1248;111236;-40
2023/02/21 13:24:40;;;;;;;8.30;3.60;;;;;;;9.49;75.28;98004.73;437488;1250;107656;-39
2023/02/21 13:34:53;;;;;;;7.00;3.10;;;;;;;9.46;76.06;98015.98;438573;1247;99185;-39
2023/02/21 13:45:09;;;;;;;4.40;2.50;;;;;;;9.59;75.74;98019.83;436712;1251;107130;-39
2023/02/21 13:55:35;;;;;;;18.10;6.00;;;;;;;9.76;74.99;98021.20;436680;1251;98792;-39
2023/02/21 14:06:12;;;;;;;14.30;5.40;;;;;;;9.72;73.90;98037.73;437360;1246;111900;-39
2023/02/21 14:16:26;;;;;;;10.60;2.90;;;;;;;9.51;73.25;98041.92;436757;1251;107082;-40
2023/02/21 14:26:41;;;;;;;6.40;4.00;;;;;;;9.40;73.84;98055.59;436561;1251;97970;-40
2023/02/21 14:36:52;;;;;;;19.70;5.90;;;;;;;9.12;74.28;98068.05;436657;1251;108033;-39
2023/02/21 14:47:27;;;;;;;21.50;6.50;;;;;;;8.89;74.62;98080.22;436609;1251;99215;-40
2023/02/21 14:57:57;;;;;;;9.90;3.40;;;;;;;8.74;74.54;98091.19;439492;1248;112417;-40
2023/02/21 15:08:01;;;;;;;11.50;3.40;;;;;;;8.59;74.73;98105.66;436365;1251;108376;-39
2023/02/21 15:18:12;;;;;;;15.30;4.90;;;;;;;8.33;74.92;98108.90;436653;1247;98480;-39
2023/02/21 15:28:20;;;;;;;20.70;7.00;;;;;;;8.12;75.33;98118.64;436148;1247;434013;-41
2023/02/21 15:38:27;;;;;;;13.40;6.30;;;;;;;7.90;75.66;98126.90;436645;1246;99189;-40
2023/02/21 15:48:34;;;;;;;17.40;7.40;;;;;;;7.72;76.16;98136.37;436869;1250;111440;-39
2023/02/21 15:58:41;;;;;;;25.10;10.10;;;;;;;7.51;76.35;98143.29;436615;1247;107833;-40
2023/02/21 16:19:02;;;;;;;22.70;6.20;;;;;;;7.22;76.63;98174.30;437212;1246;108837;-40
2023/02/21 16:29:10;;;;;;;22.50;6.10;;;;;;;7.09;76.63;98194.02;436513;1249;99094;-39
2023/02/21 16:39:18;;;;;;;25.90;6.70;;;;;;;6.86;76.63;98209.76;436667;1246;111349;-40
2023/02/21 16:49:25;;;;;;;20.70;7.50;;;;;;;6.82;76.52;98226.36;438527;1251;107771;-39
2023/02/21 16:59:33;;;;;;;24.50;7.20;;;;;;;6.82;76.59;98243.02;440252;1247;98046;-41
2023/02/21 17:09:40;;;;;;;16.40;6.50;;;;;;;6.74;76.42;98257.73;436782;1247;105885;-38
2023/02/21 17:19:46;;;;;;;19.20;6.70;;;;;;;6.58;76.44;98276.34;436642;1251;99205;-40
2023/02/21 17:29:54;;;;;;;14.80;5.80;;;;;;;6.52;76.13;98291.66;437770;1250;112090;-40
2023/02/21 17:40:01;;;;;;;21.90;6.50;;;;;;;6.49;76.03;98308.21;436509;1247;108149;-40
2023/02/21 17:50:08;;;;;;;20.50;6.30;;;;;;;6.34;76.00;98324.20;436597;1247;98831;-39
2023/02/21 18:00:23;;;;;;;31.00;11.10;;;;;;;6.19;76.14;98332.56;436604;1251;108926;-40
2023/02/21 18:10:31;;;;;;;19.40;6.30;;;;;;;6.12;75.97;98338.30;436650;1251;99208;-40
2023/02/21 18:20:38;;;;;;;24.50;6.80;;;;;;;6.12;76.24;98344.53;436717;1247;111602;-41
2023/02/21 18:30:46;;;;;;;32.00;11.60;;;;;;;6.07;76.39;98350.13;436656;1250;107649;-40
2023/02/21 18:40:59;;;;;;;26.60;11.40;;;;;;;5.98;76.40;98347.70;436652;1250;99243;-39
2023/02/21 18:51:04;;;;;;;27.40;9.10;;;;;;;5.89;76.23;98350.36;436646;1252;108518;-40
2023/02/21 19:01:13;;;;;;;23.60;8.30;;;;;;;5.88;76.16;98352.14;436686;1247;98814;-40
2023/02/21 19:11:21;;;;;;;25.80;7.40;;;;;;;5.92;76.22;98362.45;436620;1250;111783;-43
2023/02/21 19:21:28;;;;;;;28.80;8.90;;;;;;;5.89;76.28;98368.45;436609;1251;107221;-40
2023/02/21 19:31:35;;;;;;;30.20;11.20;;;;;;;5.81;76.26;98374.23;437309;1246;99076;-40
2023/02/21 19:41:43;;;;;;;26.90;10.50;;;;;;;5.73;76.42;98384.79;436771;1246;108572;-40
2023/02/21 19:51:52;;;;;;;45.10;14.00;;;;;;;5.66;76.46;98395.09;436633;1251;98834;-42
2023/02/21 20:02:02;;;;;;;30.60;11.30;;;;;;;5.66;76.32;98401.58;436734;1251;110500;-40
2023/02/21 20:12:10;;;;;;;41.70;12.40;;;;;;;5.71;76.49;98406.23;438469;1251;108118;-40
2023/02/21 20:22:16;;;;;;;44.00;15.10;;;;;;;5.72;76.49;98416.39;437002;1250;99083;-40
2023/02/21 20:32:23;;;;;;;47.00;17.30;;;;;;;5.67;76.56;98424.95;436734;1250;109740;-41
2023/02/21 20:42:31;;;;;;;56.30;17.80;;;;;;;5.59;76.75;98434.55;436787;1251;99234;-40
2023/02/21 20:52:38;;;;;;;39.60;13.10;;;;;;;5.52;76.78;98438.43;436881;1246;110458;-39
2023/02/21 21:02:48;;;;;;;33.30;11.70;;;;;;;5.51;76.79;98440.00;436860;1249;108604;-40
2023/02/21 21:12:56;;;;;;;31.50;10.40;;;;;;;5.54;76.98;98447.02;436981;1247;99201;-40
2023/02/21 21:23:03;;;;;;;31.50;13.10;;;;;;;5.57;77.27;98453.48;436769;1250;107125;-39
2023/02/21 21:33:10;;;;;;;34.30;9.00;;;;;;;5.50;77.35;98458.80;436821;1251;98938;-40
2023/02/21 21:43:17;;;;;;;35.50;9.50;;;;;;;5.41;77.31;98455.61;436978;1251;111670;-40
2023/02/21 21:53:24;;;;;;;23.80;8.30;;;;;;;5.39;77.28;98469.55;436902;1250;109511;-42
2023/02/21 22:03:33;;;;;;;22.60;8.20;;;;;;;5.37;77.42;98473.91;436939;1251;99227;-41
2023/02/21 22:13:40;;;;;;;;;;;;;;;5.30;77.52;98477.70;437130;1248;112414;-41
2023/02/21 22:23:47;;;;;;;51.00;16.40;;;;;;;5.16;77.68;98484.16;437496;1253;108479;-40
2023/02/21 22:44:02;;;;;;;41.00;14.20;;;;;;;4.96;77.83;98493.55;437051;1247;106980;-40
2023/02/21 22:54:13;;;;;;;38.50;13.20;;;;;;;4.95;77.99;98502.66;437155;1251;97957;-40
2023/02/21 23:24:39;;;;;;;48.90;12.10;;;;;;;5.13;78.33;98521.13;437143;1247;98015;-40
2023/02/21 23:34:49;;;;;;;34.00;12.30;;;;;;;5.00;78.47;98533.47;437244;1246;108555;-40
2023/02/21 23:44:56;;;;;;;33.90;10.40;;;;;;;4.88;78.51;98536.72;437251;1247;99237;-39
2023/02/21 23:55:05;;;;;;;27.90;8.60;;;;;;;4.84;78.53;98543.92;437238;1252;110752;-40
